This site, now in its 15th season, is a labour of love and fun from one of Ottawa's most avid time trialists and number crunchers. It adheres to and is permitted by the laws of Canada, promotes the objectives of every bicycle club whose results are shown, and is donated free of charge by myself for your enjoyment and usage. If you would like results from series you ride in to be shown here, give me (celia@drmath.ca) a shout!


Index Page
ATT OTT WTT AATT CFCTT VVVTT
Help resultformat:
Case-sensitive

OBC Open TT Series - 1993-Jun-17 - 15km (Rockliffe Pkwy) (EvtFactor = 0.8990)

Weather (18:00): Mostly Cloudy. Temp.: 23.9C, Humidity: 46%, DewPoint: 11.5C, Wind: SW 15km/h, Pressure: 100.74kPa, Visibility: 40.2km.
Weather (19:00): Mostly Cloudy. Temp.: 23.3C, Humidity: 47%, DewPoint: 11.2C, Wind: SSW 11km/h, Pressure: 100.71kPa, Visibility: 40.2km.
Weather (20:00): Mostly Cloudy. Temp.: 22.2C, Humidity: 45%, DewPoint: 9.6C, Wind: SSW 9km/h, Pressure: 100.71kPa, Visibility: 40.2km.

Send photos with description (when/where/what) of yourself on or off of bike to celia@drmath.ca

 
 

BESTS?
 
Y 1 Fraser, Gord --- 18:48 47.872 1/81 OSEM 1/34 1.0596
2 Large, John --- 20:02 44.925 2/81 OSEM 2/34 1.0226
3 Payeur, Michel --- 20:10 44.628 3/81 OSEM 3/34  
4 Redding, Neil OBC 20:40 43.548 4/81 OVAM 1/16 0.9903
5 Burge, Craig  --- 20:43 43.443 5/81 OSEM 4/34 1.0817
6 Cowan, Norman  OBC 20:45 43.373 6/81 OVAM 2/16 0.9785
7 Simpson, Bob OBC 20:59 42.891 7/81 OVBM 1/11 0.9717
8 Georgas, Chris OBC 21:01 42.823 8/81 OVBM 2/11 1.0144
9 Bachman, Paul --- 21:10 42.520 9/81 OSEM 5/34 1.0800
10 Aller, Brian OBC 21:14 42.386 10/81 OVAM 3/16 1.0213
11 Parkin, Brian --- 21:21 42.155 11/81 OVAM 4/16  
12 Archambault, Marc --- 21:24 42.056 12/81 OSEM 6/34 1.0693
Morewood, Arthur --- 21:24 42.056 12/81 OVBM 3/11  
14 Stephenson, Jamie --- 21:39 41.570 14/81 OSEM 7/34  
15 Statchuk, Craig OBC 21:43 41.443 15/81 OVAM 5/16 0.9659
16 St-Amour, Pierre OBC 21:48 41.284 16/81 OVAM 6/16 1.0301
17 Young, James OBC 21:49 41.253 17/81 OSEM 8/34 0.9705
18 Carroll, Roger OBC 21:51 41.190 18/81 OSEM 9/34  
19 Martignago, Mike OBC 21:52 41.159 19/81 OSEM 10/34 1.0023
Vezina, Patrick --- 21:52 41.159 19/81 OSEM 10/34  
21 Fraser, Ian OBC 21:55 41.065 21/81 OSEM 12/34 0.9158
22 Buffa, Alex  OBC 21:56 41.033 22/81 OSEM 13/34 1.0000
23 Greenberg, Mike OBC 21:58 40.971 23/81 OSEM 14/34 1.0890
24 Marshall, Steve --- 21:59 40.940 24/81 XXM 1/1  
25 Budd, Daniel OBC 22:00 40.909 25/81 OSEM 15/34 0.9910
26 Moerman, Bram  OBC 22:01 40.878 26/81 OVBM 4/11 0.9641
27 Guenette, Jean-Yves OBC 22:12 40.541 27/81 OVAM 7/16 1.0205
28 Jensen, Prapti OBC 22:13 40.510 28/81 OSEF 1/5 1.0204
29 MacDonald, Ryan OBC 22:28 40.059 29/81 OSEM 16/34 0.9626
30 Daniels, Phillip --- 22:36 39.823 30/81 OSEM 17/34  
31 MacMillan, Trevor --- 22:37 39.794 31/81 OSEM 18/34 1.0934
32 Smallwood, Steve OBC 22:53 39.330 32/81 OVAM 8/16 1.1682
33 Montpetit, Stephane OBC 23:01 39.102 33/81 OSEM 19/34 1.0553
Pazdzior, Ellen  OBC 23:01 39.102 33/81 OVAF 1/3 1.2661
35 Le Grand, Gregory OBC 23:14 38.737 35/81 OVBM 5/11 1.1774
36 Cossette, Mari-Josée --- 23:19 38.599 36/81 XXF 1/1  
37 Atkins, Brent --- 23:21 38.544 37/81 OSEM 20/34 0.9979
38 Paterson, Gail OBC 23:22 38.516 38/81 OSEF 2/5 1.0903
39 Austen, Ian  OBC 23:23 38.489 39/81 OVAM 9/16 1.0043
40 Palamar, David --- 23:26 38.407 40/81 OSEM 21/34 1.0455
41 LaViolette, Nicole  OBC 23:28 38.352 41/81 OSEF 3/5  
42 Tamborine, Don OBC 23:29 38.325 42/81 OVBM 6/11 0.9957
43 Bachman, Mike --- 23:31 38.271 43/81 OVBM 7/11 0.9979
44 Heffler, Paul OBC 23:32 38.244 44/81 OSEM 22/34 0.9275
Hicks, Terry OBC 23:32 38.244 44/81 OVAM 10/16 1.0830
46 Humphreys, Les  OBC/ABC 23:43 37.948 46/81 OVBM 8/11  
Shadeed, Charles OBC 23:43 37.948 46/81 OVAM 11/16 1.0277
48 Roy, Dominique --- 23:46 37.868 48/81 OSEM 23/34  
49 Leitch, Brendan OBC 23:53 37.683 49/81 OSEM 24/34  
50 Revesz, Erika  OBC 24:04 37.396 50/81 OVAF 2/3 0.9855
51 Soucy, Dominic OBC 24:13 37.164 51/81 OJUM 1/4 1.0870
52 Barber, Brian OBC 24:14 37.139 52/81 OSEM 25/34 1.0870
53 Atkinson, John OBC 24:17 37.062 53/81 OVAM 12/16 0.9474
54 Hays, Ryan OBC 24:23 36.910 54/81 U18M 1/1 1.0206
55 Berthelet, David OBC 24:43 36.413 55/81 OVBM 9/11 1.0789
McIntyre, Scott --- 24:43 36.413 55/81 OSEM 26/34  
57 St-Cyr, Michel --- 24:45 36.364 57/81 OSEM 27/34  
58 Boileau, Greg OBC 24:50 36.242 58/81 OJUM 2/4 1.1632
59 Fraser, Ian B. OBC 24:51 36.217 59/81 OVBM 10/11  
60 Bowring, John --- 25:01 35.976 60/81 OJUM 3/4 0.8272
61 Sharman, Killaine --- 25:07 35.833 61/81 OSEF 4/5 1.1635
62 DeVidi, Robert  OBC 25:13 35.691 62/81 OSEM 28/34 1.0362
63 Brisson, Francis OBC 25:28 35.340 63/81 OSEM 29/34 1.1013
64 Bjerkelund, Cathryn --- 25:30 35.294 64/81 OSEF 5/5  
65 Daniels, Mike --- 25:31 35.271 65/81 OVCM 1/2  
66 Ajersch, Mary  OBC 25:38 35.111 66/81 OVBF 1/2 1.0217
Aller, Mo OBC 25:38 35.111 66/81 OVCM 2/2 0.9691
68 Ghadban, Zeus --- 25:41 35.042 68/81 OSEM 30/34  
69 Caron, Vianney OBC 25:47 34.906 69/81 OVAM 13/16 1.0254
70 Allen, Brent OBC 25:50 34.839 70/81 OSEM 31/34  
71 Hollywood, Rudy OBC 25:53 34.771 71/81 OVBM 11/11 0.9229
72 Kapinsky, Shelly OBC 26:11 34.373 72/81 OVBF 2/2 1.2538
Paitich, Daniel OBC 26:11 34.373 72/81 OVAM 14/16 1.2164
74 Chen, Jonathan --- 26:53 33.478 74/81 OSEM 32/34 1.0169
75 James, Peter OBC 27:06 33.210 75/81 OVAM 15/16  
76 Beckwith, Wayne --- 27:08 33.170 76/81 OSEM 33/34  
77 Montserrat, Fabienne OBC 27:15 33.028 77/81 OVAF 3/3 1.0390
78 Petty, Douglas OBC 27:34 32.648 78/81 OVAM 16/16  
79 Beselt, Jeff --- 27:53 32.277 79/81 OJUM 4/4  
80 James, Stuart OBC 31:10 28.877 80/81 OPWM 1/1  
81 Lewis, Sheldon OBC 32:37 27.593 81/81 OSEM 34/34  
 
Average Speed of all of the above 81 finishes (1215km in 31:59:05):37.987
>>>Average of the Average Speeds for these 81 finishes38.339<<<
 

The number of data records shown above is 81
The server processing of your query took: 3 wallclock secs ( 0.12 usr + 0.00 sys = 0.12 CPU)

Thanks to our Helpers: Celia McInnis, Rochendea Rydeard, Denis Fairhead.

     


Apr 9 (Good Friday) Apr 15 Apr 22 (cancelled) Apr 27 Apr 29
May 4 (10km) May 6 May 11 May 11 (10km) May 13 (22km) May 16 (40km) May 18 May 18 (10km) May 20 May 25 May 25 (10km) May 27 (38km) May 30 (40km)
Jun 1 Jun 3 Jun 8 Jun 10 (22km) Jun 15
  Jun 17  
Jun 22 Jun 22 Jun 24 (38km) Jun 25 Jun 27 (40km/80km) Jun 29 Jun 29 Jun 30
Jul 6 Jul 6 Jul 8 Jul 13 Jul 13 Jul 15 (38km) Jul 20 Jul 20 Jul 22 Jul 25 (80km) Jul 27 Jul 29 (22km)
Aug 3 Aug 3 Aug 5 Aug 7 (38km) Aug 10 Aug 10 Aug 12 Aug 15 (40km/80km) Aug 17 Aug 19 Aug 21 (22km) Aug 24 Aug 24 Aug 26 Aug 29 (40km) Aug 31 (Invitational)
Sep 2 Sep 7 Sep 9 Sep 14 Sep 16 Sep 25 (40km)

OTT Rankings
Best       Best by category
WTT Rankings for OBC Members
5 Best 15km     5 Best 15km by category
OBC Member Best Three 15km Rankings
Overall     by category
OBC BAR Ranking
Overall     by category     Rider "Consistency-Graph"
ABC BAR Ranking
Overall     by category     Rider "Consistency-Graph"
Other years
TT Calculator All TT People All TT events
ABC Home VVV Home
CKAP GOLD MEDAL
Other Links

Please send your comments and suggestions to: Celia McInnis
Copyright © 1998-2011 Celia McInnis. All rights reserved. Links are welcomed.